sensor_id;sensor_type;location;lat;lon;timestamp;temperature;humidity
14049;DHT22;7099;53.922;10.728;2023-03-31T00:03:15;11.00;80.40
14049;DHT22;7099;53.922;10.728;2023-03-31T00:07:26;11.00;80.60
14049;DHT22;7099;53.922;10.728;2023-03-31T00:11:32;11.00;80.70
14049;DHT22;7099;53.922;10.728;2023-03-31T00:15:38;11.00;80.80
14049;DHT22;7099;53.922;10.728;2023-03-31T00:19:43;11.00;80.90
14049;DHT22;7099;53.922;10.728;2023-03-31T00:23:52;11.00;81.60
14049;DHT22;7099;53.922;10.728;2023-03-31T00:28:01;10.90;81.20
14049;DHT22;7099;53.922;10.728;2023-03-31T00:32:07;11.00;81.30
14049;DHT22;7099;53.922;10.728;2023-03-31T00:36:13;11.00;81.40
14049;DHT22;7099;53.922;10.728;2023-03-31T00:40:25;11.00;81.50
14049;DHT22;7099;53.922;10.728;2023-03-31T00:44:31;11.00;81.60
14049;DHT22;7099;53.922;10.728;2023-03-31T00:48:38;11.00;81.50
14049;DHT22;7099;53.922;10.728;2023-03-31T00:53:06;11.00;81.50
14049;DHT22;7099;53.922;10.728;2023-03-31T00:57:14;11.00;81.70
14049;DHT22;7099;53.922;10.728;2023-03-31T01:01:21;11.00;81.70
14049;DHT22;7099;53.922;10.728;2023-03-31T01:05:44;11.00;81.60
14049;DHT22;7099;53.922;10.728;2023-03-31T01:09:52;11.00;81.90
14049;DHT22;7099;53.922;10.728;2023-03-31T01:14:03;11.10;81.70
14049;DHT22;7099;53.922;10.728;2023-03-31T01:18:10;11.10;81.80
14049;DHT22;7099;53.922;10.728;2023-03-31T01:40:56;11.10;82.10
14049;DHT22;7099;53.922;10.728;2023-03-31T01:45:19;11.10;81.80
14049;DHT22;7099;53.922;10.728;2023-03-31T01:49:57;11.10;82.00
14049;DHT22;7099;53.922;10.728;2023-03-31T01:59:33;11.10;82.10
14049;DHT22;7099;53.922;10.728;2023-03-31T02:03:33;11.10;82.20
14049;DHT22;7099;53.922;10.728;2023-03-31T02:07:47;11.10;81.70
14049;DHT22;7099;53.922;10.728;2023-03-31T02:11:56;11.10;81.60
14049;DHT22;7099;53.922;10.728;2023-03-31T02:16:07;11.10;81.60
14049;DHT22;7099;53.922;10.728;2023-03-31T02:20:18;11.10;81.60
14049;DHT22;7099;53.922;10.728;2023-03-31T02:24:26;11.10;81.70
14049;DHT22;7099;53.922;10.728;2023-03-31T02:28:33;11.10;81.50
14049;DHT22;7099;53.922;10.728;2023-03-31T02:32:41;11.00;81.40
14049;DHT22;7099;53.922;10.728;2023-03-31T02:36:50;11.10;81.60
14049;DHT22;7099;53.922;10.728;2023-03-31T02:40:56;11.00;81.50
14049;DHT22;7099;53.922;10.728;2023-03-31T02:45:32;11.00;81.40
14049;DHT22;7099;53.922;10.728;2023-03-31T02:49:53;11.00;81.50
14049;DHT22;7099;53.922;10.728;2023-03-31T02:54:55;11.00;81.90
14049;DHT22;7099;53.922;10.728;2023-03-31T03:12:41;11.00;81.20
14049;DHT22;7099;53.922;10.728;2023-03-31T03:16:56;10.90;80.90
14049;DHT22;7099;53.922;10.728;2023-03-31T03:21:04;10.90;80.80
14049;DHT22;7099;53.922;10.728;2023-03-31T03:25:12;10.90;80.60
14049;DHT22;7099;53.922;10.728;2023-03-31T03:29:18;10.90;80.60
14049;DHT22;7099;53.922;10.728;2023-03-31T03:33:24;10.90;80.50
14049;DHT22;7099;53.922;10.728;2023-03-31T03:37:31;10.90;80.50
14049;DHT22;7099;53.922;10.728;2023-03-31T03:41:37;11.00;80.40
14049;DHT22;7099;53.922;10.728;2023-03-31T03:45:47;11.00;80.40
14049;DHT22;7099;53.922;10.728;2023-03-31T03:49:53;11.00;80.40
14049;DHT22;7099;53.922;10.728;2023-03-31T03:54:01;11.00;80.40
14049;DHT22;7099;53.922;10.728;2023-03-31T03:58:07;11.00;80.40
14049;DHT22;7099;53.922;10.728;2023-03-31T04:02:12;11.00;80.40
14049;DHT22;7099;53.922;10.728;2023-03-31T04:06:18;11.00;80.50
14049;DHT22;7099;53.922;10.728;2023-03-31T04:10:26;11.00;80.60
14049;DHT22;7099;53.922;10.728;2023-03-31T04:14:31;11.00;80.60
14049;DHT22;7099;53.922;10.728;2023-03-31T04:18:37;11.00;80.70
14049;DHT22;7099;53.922;10.728;2023-03-31T04:22:47;10.90;80.60
14049;DHT22;7099;53.922;10.728;2023-03-31T04:26:55;10.90;80.60
14049;DHT22;7099;53.922;10.728;2023-03-31T04:31:04;10.90;80.40
14049;DHT22;7099;53.922;10.728;2023-03-31T04:35:13;10.90;80.20
14049;DHT22;7099;53.922;10.728;2023-03-31T04:39:19;10.90;80.90
14049;DHT22;7099;53.922;10.728;2023-03-31T04:43:31;10.80;80.40
14049;DHT22;7099;53.922;10.728;2023-03-31T04:47:37;10.80;80.40
14049;DHT22;7099;53.922;10.728;2023-03-31T04:51:43;10.80;80.60
14049;DHT22;7099;53.922;10.728;2023-03-31T04:55:49;10.80;80.60
14049;DHT22;7099;53.922;10.728;2023-03-31T04:59:55;10.70;80.50
14049;DHT22;7099;53.922;10.728;2023-03-31T05:04:02;10.70;80.50
14049;DHT22;7099;53.922;10.728;2023-03-31T05:08:09;10.60;80.60
14049;DHT22;7099;53.922;10.728;2023-03-31T05:12:14;10.70;80.80
14049;DHT22;7099;53.922;10.728;2023-03-31T05:16:20;10.60;80.80
14049;DHT22;7099;53.922;10.728;2023-03-31T05:20:25;10.60;81.10
14049;DHT22;7099;53.922;10.728;2023-03-31T05:24:31;10.60;81.70
14049;DHT22;7099;53.922;10.728;2023-03-31T05:28:37;10.60;81.80
14049;DHT22;7099;53.922;10.728;2023-03-31T05:32:43;10.50;81.10
14049;DHT22;7099;53.922;10.728;2023-03-31T05:36:49;10.60;81.20
14049;DHT22;7099;53.922;10.728;2023-03-31T05:40:57;10.60;81.20
14049;DHT22;7099;53.922;10.728;2023-03-31T05:45:04;10.60;81.00
14049;DHT22;7099;53.922;10.728;2023-03-31T05:49:13;10.60;81.20
14049;DHT22;7099;53.922;10.728;2023-03-31T05:53:20;10.70;81.30
14049;DHT22;7099;53.922;10.728;2023-03-31T05:57:27;10.70;81.30
14049;DHT22;7099;53.922;10.728;2023-03-31T06:01:33;10.80;81.50
14049;DHT22;7099;53.922;10.728;2023-03-31T06:05:38;10.80;81.40
14049;DHT22;7099;53.922;10.728;2023-03-31T06:09:45;10.90;81.40
14049;DHT22;7099;53.922;10.728;2023-03-31T06:13:51;10.90;81.40
14049;DHT22;7099;53.922;10.728;2023-03-31T06:17:57;11.00;81.50
14049;DHT22;7099;53.922;10.728;2023-03-31T06:22:02;11.00;81.40
14049;DHT22;7099;53.922;10.728;2023-03-31T06:26:12;11.00;81.40
14049;DHT22;7099;53.922;10.728;2023-03-31T06:30:19;11.10;81.50
14049;DHT22;7099;53.922;10.728;2023-03-31T06:34:24;11.10;81.10
14049;DHT22;7099;53.922;10.728;2023-03-31T06:38:31;11.10;81.00
14049;DHT22;7099;53.922;10.728;2023-03-31T06:42:41;11.20;81.30
14049;DHT22;7099;53.922;10.728;2023-03-31T06:46:46;11.30;81.20
14049;DHT22;7099;53.922;10.728;2023-03-31T06:50:53;11.30;80.90
14049;DHT22;7099;53.922;10.728;2023-03-31T06:55:00;11.40;81.30
14049;DHT22;7099;53.922;10.728;2023-03-31T06:59:05;11.60;81.00
14049;DHT22;7099;53.922;10.728;2023-03-31T07:03:11;11.70;81.20
14049;DHT22;7099;53.922;10.728;2023-03-31T07:07:18;11.80;81.10
14049;DHT22;7099;53.922;10.728;2023-03-31T07:11:23;11.90;81.00
14049;DHT22;7099;53.922;10.728;2023-03-31T07:15:29;12.00;80.40
14049;DHT22;7099;53.922;10.728;2023-03-31T07:19:34;12.00;79.90
14049;DHT22;7099;53.922;10.728;2023-03-31T07:23:42;12.00;79.60
14049;DHT22;7099;53.922;10.728;2023-03-31T07:27:47;12.10;79.40
14049;DHT22;7099;53.922;10.728;2023-03-31T07:31:53;12.10;79.40
14049;DHT22;7099;53.922;10.728;2023-03-31T07:36:03;12.20;79.10
14049;DHT22;7099;53.922;10.728;2023-03-31T07:40:24;12.20;78.80
14049;DHT22;7099;53.922;10.728;2023-03-31T07:44:35;12.20;78.80
14049;DHT22;7099;53.922;10.728;2023-03-31T07:48:41;12.20;78.50
14049;DHT22;7099;53.922;10.728;2023-03-31T07:52:48;12.30;78.50
14049;DHT22;7099;53.922;10.728;2023-03-31T07:56:54;12.40;78.60
14049;DHT22;7099;53.922;10.728;2023-03-31T08:01:00;12.50;78.20
14049;DHT22;7099;53.922;10.728;2023-03-31T08:05:06;12.50;77.70
14049;DHT22;7099;53.922;10.728;2023-03-31T08:09:12;12.50;77.30
14049;DHT22;7099;53.922;10.728;2023-03-31T08:13:17;12.60;77.40
14049;DHT22;7099;53.922;10.728;2023-03-31T08:17:23;12.80;77.50
14049;DHT22;7099;53.922;10.728;2023-03-31T08:21:30;12.80;77.50
14049;DHT22;7099;53.922;10.728;2023-03-31T08:25:36;12.90;77.00
14049;DHT22;7099;53.922;10.728;2023-03-31T08:29:42;12.90;77.30
14049;DHT22;7099;53.922;10.728;2023-03-31T08:33:48;13.00;76.60
14049;DHT22;7099;53.922;10.728;2023-03-31T08:37:53;13.00;76.60
14049;DHT22;7099;53.922;10.728;2023-03-31T08:42:06;13.10;76.20
14049;DHT22;7099;53.922;10.728;2023-03-31T08:46:20;13.20;76.00
14049;DHT22;7099;53.922;10.728;2023-03-31T08:50:30;13.20;75.30
14049;DHT22;7099;53.922;10.728;2023-03-31T08:54:40;13.20;75.00
14049;DHT22;7099;53.922;10.728;2023-03-31T08:58:49;13.30;74.90
14049;DHT22;7099;53.922;10.728;2023-03-31T09:03:02;13.40;74.90
14049;DHT22;7099;53.922;10.728;2023-03-31T09:07:29;13.50;74.30
14049;DHT22;7099;53.922;10.728;2023-03-31T09:11:55;13.50;73.80
14049;DHT22;7099;53.922;10.728;2023-03-31T09:16:13;13.50;74.60
14049;DHT22;7099;53.922;10.728;2023-03-31T09:20:30;13.60;73.80
14049;DHT22;7099;53.922;10.728;2023-03-31T09:25:42;13.60;74.00
14049;DHT22;7099;53.922;10.728;2023-03-31T09:34:13;13.80;73.20
14049;DHT22;7099;53.922;10.728;2023-03-31T09:38:21;13.70;73.10
14049;DHT22;7099;53.922;10.728;2023-03-31T09:42:27;13.90;73.10
14049;DHT22;7099;53.922;10.728;2023-03-31T09:46:34;13.90;72.70
14049;DHT22;7099;53.922;10.728;2023-03-31T09:50:51;14.00;73.10
14049;DHT22;7099;53.922;10.728;2023-03-31T09:55:01;14.00;72.20
14049;DHT22;7099;53.922;10.728;2023-03-31T10:03:21;14.20;73.30
14049;DHT22;7099;53.922;10.728;2023-03-31T10:07:29;14.30;73.60
14049;DHT22;7099;53.922;10.728;2023-03-31T10:11:36;14.30;72.80
14049;DHT22;7099;53.922;10.728;2023-03-31T10:15:42;14.20;71.80
14049;DHT22;7099;53.922;10.728;2023-03-31T10:19:59;14.10;71.80
14049;DHT22;7099;53.922;10.728;2023-03-31T10:24:16;14.10;72.00
14049;DHT22;7099;53.922;10.728;2023-03-31T10:28:22;14.00;72.50
14049;DHT22;7099;53.922;10.728;2023-03-31T10:32:30;14.00;73.20
14049;DHT22;7099;53.922;10.728;2023-03-31T10:36:37;13.90;73.50
14049;DHT22;7099;53.922;10.728;2023-03-31T10:40:57;13.80;74.20
14049;DHT22;7099;53.922;10.728;2023-03-31T10:45:25;13.80;75.00
14049;DHT22;7099;53.922;10.728;2023-03-31T10:49:43;13.90;75.40
14049;DHT22;7099;53.922;10.728;2023-03-31T10:53:52;13.90;75.80
14049;DHT22;7099;53.922;10.728;2023-03-31T11:25:29;14.10;75.90
14049;DHT22;7099;53.922;10.728;2023-03-31T11:30:19;14.20;75.30
14049;DHT22;7099;53.922;10.728;2023-03-31T11:39:27;14.00;75.60
14049;DHT22;7099;53.922;10.728;2023-03-31T11:44:01;13.90;75.20
14049;DHT22;7099;53.922;10.728;2023-03-31T11:48:53;13.90;75.20
14049;DHT22;7099;53.922;10.728;2023-03-31T11:53:34;13.90;75.40
14049;DHT22;7099;53.922;10.728;2023-03-31T11:57:45;14.00;75.80
14049;DHT22;7099;53.922;10.728;2023-03-31T12:02:21;14.10;76.30
14049;DHT22;7099;53.922;10.728;2023-03-31T12:06:38;14.20;76.90
14049;DHT22;7099;53.922;10.728;2023-03-31T12:10:51;14.30;75.70
14049;DHT22;7099;53.922;10.728;2023-03-31T12:23:56;14.40;74.80
14049;DHT22;7099;53.922;10.728;2023-03-31T12:28:02;14.40;74.20
14049;DHT22;7099;53.922;10.728;2023-03-31T12:32:17;14.40;74.20
14049;DHT22;7099;53.922;10.728;2023-03-31T12:45:38;14.50;74.20
14049;DHT22;7099;53.922;10.728;2023-03-31T12:59:31;14.50;72.80
14049;DHT22;7099;53.922;10.728;2023-03-31T13:04:07;14.50;73.60
14049;DHT22;7099;53.922;10.728;2023-03-31T13:13:19;14.30;72.00
14049;DHT22;7099;53.922;10.728;2023-03-31T13:17:34;14.20;72.70
14049;DHT22;7099;53.922;10.728;2023-03-31T13:21:57;14.10;72.80
14049;DHT22;7099;53.922;10.728;2023-03-31T13:26:04;14.10;72.10
14049;DHT22;7099;53.922;10.728;2023-03-31T13:30:43;14.20;73.10
14049;DHT22;7099;53.922;10.728;2023-03-31T13:34:58;14.20;72.90
14049;DHT22;7099;53.922;10.728;2023-03-31T13:44:20;14.30;72.80
14049;DHT22;7099;53.922;10.728;2023-03-31T14:01:39;14.10;72.50
14049;DHT22;7099;53.922;10.728;2023-03-31T14:06:11;14.10;72.10
14049;DHT22;7099;53.922;10.728;2023-03-31T14:10:36;14.00;71.10
14049;DHT22;7099;53.922;10.728;2023-03-31T14:14:42;14.10;71.50
14049;DHT22;7099;53.922;10.728;2023-03-31T14:18:49;14.20;71.90
14049;DHT22;7099;53.922;10.728;2023-03-31T14:27:53;14.30;71.50
14049;DHT22;7099;53.922;10.728;2023-03-31T14:33:07;14.30;69.20
14049;DHT22;7099;53.922;10.728;2023-03-31T14:37:25;14.30;71.10
14049;DHT22;7099;53.922;10.728;2023-03-31T14:41:32;14.30;71.30
14049;DHT22;7099;53.922;10.728;2023-03-31T14:45:37;14.30;71.50
14049;DHT22;7099;53.922;10.728;2023-03-31T14:49:43;14.30;72.00
14049;DHT22;7099;53.922;10.728;2023-03-31T14:53:58;14.30;72.60
14049;DHT22;7099;53.922;10.728;2023-03-31T14:58:04;14.30;73.20
14049;DHT22;7099;53.922;10.728;2023-03-31T15:02:15;14.30;73.10
14049;DHT22;7099;53.922;10.728;2023-03-31T15:06:24;14.30;72.80
14049;DHT22;7099;53.922;10.728;2023-03-31T15:10:42;14.30;72.90
14049;DHT22;7099;53.922;10.728;2023-03-31T15:14:53;14.40;72.40
14049;DHT22;7099;53.922;10.728;2023-03-31T15:19:13;14.50;73.00
14049;DHT22;7099;53.922;10.728;2023-03-31T15:23:30;14.60;72.30
14049;DHT22;7099;53.922;10.728;2023-03-31T15:27:41;14.60;72.20
14049;DHT22;7099;53.922;10.728;2023-03-31T15:31:51;14.60;72.00
14049;DHT22;7099;53.922;10.728;2023-03-31T15:36:02;14.60;72.20
14049;DHT22;7099;53.922;10.728;2023-03-31T15:40:26;14.70;71.60
14049;DHT22;7099;53.922;10.728;2023-03-31T15:44:45;14.70;71.00
14049;DHT22;7099;53.922;10.728;2023-03-31T15:48:53;14.60;70.60
14049;DHT22;7099;53.922;10.728;2023-03-31T15:52:59;14.60;70.80
14049;DHT22;7099;53.922;10.728;2023-03-31T15:57:08;14.60;71.00
14049;DHT22;7099;53.922;10.728;2023-03-31T16:01:19;14.50;71.10
14049;DHT22;7099;53.922;10.728;2023-03-31T16:10:04;14.40;70.80
14049;DHT22;7099;53.922;10.728;2023-03-31T16:14:18;14.40;70.60
14049;DHT22;7099;53.922;10.728;2023-03-31T16:18:49;14.30;71.40
14049;DHT22;7099;53.922;10.728;2023-03-31T16:22:57;14.30;71.00
14049;DHT22;7099;53.922;10.728;2023-03-31T16:27:05;14.30;71.00
14049;DHT22;7099;53.922;10.728;2023-03-31T16:31:37;14.30;71.70
14049;DHT22;7099;53.922;10.728;2023-03-31T16:35:49;14.30;72.40
14049;DHT22;7099;53.922;10.728;2023-03-31T16:40:01;14.20;72.90
14049;DHT22;7099;53.922;10.728;2023-03-31T16:44:06;14.10;72.80
14049;DHT22;7099;53.922;10.728;2023-03-31T16:48:13;14.00;73.20
14049;DHT22;7099;53.922;10.728;2023-03-31T16:52:40;13.90;73.40
14049;DHT22;7099;53.922;10.728;2023-03-31T16:56:46;13.80;73.60
14049;DHT22;7099;53.922;10.728;2023-03-31T17:00:52;13.70;74.10
14049;DHT22;7099;53.922;10.728;2023-03-31T17:04:59;13.60;74.20
14049;DHT22;7099;53.922;10.728;2023-03-31T17:09:17;13.60;74.50
14049;DHT22;7099;53.922;10.728;2023-03-31T17:13:23;13.50;74.60
14049;DHT22;7099;53.922;10.728;2023-03-31T17:17:29;13.40;75.40
14049;DHT22;7099;53.922;10.728;2023-03-31T17:21:35;13.40;75.20
14049;DHT22;7099;53.922;10.728;2023-03-31T17:25:52;13.40;75.40
14049;DHT22;7099;53.922;10.728;2023-03-31T17:29:57;13.40;75.70
14049;DHT22;7099;53.922;10.728;2023-03-31T17:34:03;13.30;75.50
14049;DHT22;7099;53.922;10.728;2023-03-31T17:38:09;13.30;75.50
14049;DHT22;7099;53.922;10.728;2023-03-31T17:42:17;13.30;75.60
14049;DHT22;7099;53.922;10.728;2023-03-31T17:46:24;13.20;75.60
14049;DHT22;7099;53.922;10.728;2023-03-31T17:50:30;13.20;75.60
14049;DHT22;7099;53.922;10.728;2023-03-31T17:54:37;13.20;75.70
14049;DHT22;7099;53.922;10.728;2023-03-31T17:58:42;13.10;75.70
14049;DHT22;7099;53.922;10.728;2023-03-31T18:02:49;13.10;75.80
14049;DHT22;7099;53.922;10.728;2023-03-31T18:06:55;13.00;75.90
14049;DHT22;7099;53.922;10.728;2023-03-31T18:11:02;13.00;76.00
14049;DHT22;7099;53.922;10.728;2023-03-31T18:15:09;13.00;76.00
14049;DHT22;7099;53.922;10.728;2023-03-31T18:19:15;12.90;76.10
14049;DHT22;7099;53.922;10.728;2023-03-31T18:23:21;12.90;76.40
14049;DHT22;7099;53.922;10.728;2023-03-31T18:27:27;12.90;76.50
14049;DHT22;7099;53.922;10.728;2023-03-31T18:31:32;12.80;76.60
14049;DHT22;7099;53.922;10.728;2023-03-31T18:35:38;12.80;76.80
14049;DHT22;7099;53.922;10.728;2023-03-31T18:39:44;12.70;77.00
14049;DHT22;7099;53.922;10.728;2023-03-31T18:43:50;12.70;77.10
14049;DHT22;7099;53.922;10.728;2023-03-31T18:47:57;12.70;77.10
14049;DHT22;7099;53.922;10.728;2023-03-31T18:52:02;12.60;77.20
14049;DHT22;7099;53.922;10.728;2023-03-31T18:56:09;12.60;77.50
14049;DHT22;7099;53.922;10.728;2023-03-31T19:00:19;12.50;77.70
14049;DHT22;7099;53.922;10.728;2023-03-31T19:04:25;12.50;77.80
14049;DHT22;7099;53.922;10.728;2023-03-31T19:08:31;12.50;77.80
14049;DHT22;7099;53.922;10.728;2023-03-31T19:12:37;12.40;77.80
14049;DHT22;7099;53.922;10.728;2023-03-31T19:16:42;12.40;77.80
14049;DHT22;7099;53.922;10.728;2023-03-31T19:20:49;12.40;78.00
14049;DHT22;7099;53.922;10.728;2023-03-31T19:24:54;12.40;77.90
14049;DHT22;7099;53.922;10.728;2023-03-31T19:29:00;12.30;77.90
14049;DHT22;7099;53.922;10.728;2023-03-31T19:33:07;12.20;77.80
14049;DHT22;7099;53.922;10.728;2023-03-31T19:37:12;12.20;77.80
14049;DHT22;7099;53.922;10.728;2023-03-31T19:41:18;12.20;77.90
14049;DHT22;7099;53.922;10.728;2023-03-31T19:45:23;12.00;77.90
14049;DHT22;7099;53.922;10.728;2023-03-31T19:49:29;12.10;77.90
14049;DHT22;7099;53.922;10.728;2023-03-31T19:53:38;12.10;77.80
14049;DHT22;7099;53.922;10.728;2023-03-31T19:57:44;12.00;77.80
14049;DHT22;7099;53.922;10.728;2023-03-31T20:01:50;12.00;77.70
14049;DHT22;7099;53.922;10.728;2023-03-31T20:06:11;11.90;77.90
14049;DHT22;7099;53.922;10.728;2023-03-31T20:10:18;12.00;78.20
14049;DHT22;7099;53.922;10.728;2023-03-31T20:14:23;11.90;78.10
14049;DHT22;7099;53.922;10.728;2023-03-31T20:18:29;11.90;78.10
14049;DHT22;7099;53.922;10.728;2023-03-31T20:22:35;11.90;78.10
14049;DHT22;7099;53.922;10.728;2023-03-31T20:26:41;11.90;78.20
14049;DHT22;7099;53.922;10.728;2023-03-31T20:30:47;11.80;78.30
14049;DHT22;7099;53.922;10.728;2023-03-31T20:34:53;11.80;78.30
14049;DHT22;7099;53.922;10.728;2023-03-31T20:38:59;11.80;78.30
14049;DHT22;7099;53.922;10.728;2023-03-31T20:43:08;11.80;78.30
14049;DHT22;7099;53.922;10.728;2023-03-31T20:47:14;11.80;78.20
14049;DHT22;7099;53.922;10.728;2023-03-31T20:51:22;11.70;78.40
14049;DHT22;7099;53.922;10.728;2023-03-31T20:55:29;11.70;78.40
14049;DHT22;7099;53.922;10.728;2023-03-31T20:59:35;11.70;78.50
14049;DHT22;7099;53.922;10.728;2023-03-31T21:03:40;11.60;78.60
14049;DHT22;7099;53.922;10.728;2023-03-31T21:07:46;11.60;79.00
14049;DHT22;7099;53.922;10.728;2023-03-31T21:11:52;11.60;79.00
14049;DHT22;7099;53.922;10.728;2023-03-31T21:15:58;11.60;79.10
14049;DHT22;7099;53.922;10.728;2023-03-31T21:20:05;11.60;79.00
14049;DHT22;7099;53.922;10.728;2023-03-31T21:24:12;11.50;78.70
14049;DHT22;7099;53.922;10.728;2023-03-31T21:28:20;11.50;78.90
14049;DHT22;7099;53.922;10.728;2023-03-31T21:32:27;11.50;79.20
14049;DHT22;7099;53.922;10.728;2023-03-31T21:36:33;11.50;79.20
14049;DHT22;7099;53.922;10.728;2023-03-31T21:40:39;11.40;79.20
14049;DHT22;7099;53.922;10.728;2023-03-31T21:44:45;11.40;79.30
14049;DHT22;7099;53.922;10.728;2023-03-31T21:48:51;11.40;79.50
14049;DHT22;7099;53.922;10.728;2023-03-31T21:52:56;11.40;79.60
14049;DHT22;7099;53.922;10.728;2023-03-31T21:57:03;11.30;79.60
14049;DHT22;7099;53.922;10.728;2023-03-31T22:01:09;11.30;79.80
14049;DHT22;7099;53.922;10.728;2023-03-31T22:05:14;11.30;79.90
14049;DHT22;7099;53.922;10.728;2023-03-31T22:09:20;11.30;79.90
14049;DHT22;7099;53.922;10.728;2023-03-31T22:13:26;11.30;79.90
14049;DHT22;7099;53.922;10.728;2023-03-31T22:17:33;11.20;80.10
14049;DHT22;7099;53.922;10.728;2023-03-31T22:21:39;11.30;80.30
14049;DHT22;7099;53.922;10.728;2023-03-31T22:25:45;11.20;80.20
14049;DHT22;7099;53.922;10.728;2023-03-31T22:29:51;11.20;80.20
14049;DHT22;7099;53.922;10.728;2023-03-31T22:33:57;11.20;80.10
14049;DHT22;7099;53.922;10.728;2023-03-31T22:38:03;11.20;80.30
14049;DHT22;7099;53.922;10.728;2023-03-31T22:42:10;11.10;80.30
14049;DHT22;7099;53.922;10.728;2023-03-31T22:46:16;11.20;80.60
14049;DHT22;7099;53.922;10.728;2023-03-31T22:50:22;11.20;80.80
14049;DHT22;7099;53.922;10.728;2023-03-31T22:54:28;11.10;80.90
14049;DHT22;7099;53.922;10.728;2023-03-31T22:58:34;11.10;80.80
14049;DHT22;7099;53.922;10.728;2023-03-31T23:02:39;11.10;81.00
14049;DHT22;7099;53.922;10.728;2023-03-31T23:06:45;11.10;80.90
14049;DHT22;7099;53.922;10.728;2023-03-31T23:10:58;11.10;80.60
14049;DHT22;7099;53.922;10.728;2023-03-31T23:15:05;11.10;80.60
14049;DHT22;7099;53.922;10.728;2023-03-31T23:19:10;11.10;80.80
14049;DHT22;7099;53.922;10.728;2023-03-31T23:23:16;11.10;80.90
14049;DHT22;7099;53.922;10.728;2023-03-31T23:27:22;11.10;81.60
14049;DHT22;7099;53.922;10.728;2023-03-31T23:31:30;11.00;81.00
14049;DHT22;7099;53.922;10.728;2023-03-31T23:35:36;11.00;81.90
14049;DHT22;7099;53.922;10.728;2023-03-31T23:39:42;11.00;81.20
14049;DHT22;7099;53.922;10.728;2023-03-31T23:43:47;11.00;81.20
14049;DHT22;7099;53.922;10.728;2023-03-31T23:47:55;11.00;81.20
14049;DHT22;7099;53.922;10.728;2023-03-31T23:52:01;11.00;81.30
14049;DHT22;7099;53.922;10.728;2023-03-31T23:56:09;11.00;81.30
